createdAt,value
2023-07-06T00:00:17.674Z,10.868056
2023-07-06T00:05:17.715Z,10.416667
2023-07-06T00:10:17.297Z,10.182870
2023-07-06T00:15:17.356Z,10.106481
2023-07-06T00:20:17.318Z,10.460648
2023-07-06T00:25:17.325Z,11.127315
2023-07-06T00:30:17.351Z,10.888889
2023-07-06T00:35:17.388Z,10.482222
2023-07-06T00:40:17.624Z,10.092593
2023-07-06T00:45:17.507Z,9.701389
2023-07-06T00:50:17.500Z,9.659722
2023-07-06T00:55:17.322Z,9.571111
2023-07-06T01:00:17.602Z,9.604167
2023-07-06T01:05:17.292Z,9.502315
2023-07-06T01:10:17.450Z,9.368056
2023-07-06T01:15:17.428Z,9.525463
2023-07-06T01:20:17.413Z,9.451389
2023-07-06T01:25:17.310Z,9.404444
2023-07-06T01:30:17.625Z,9.212963
2023-07-06T01:35:17.499Z,9.099537
2023-07-06T01:40:17.732Z,9.152778
2023-07-06T01:45:17.602Z,9.171296
2023-07-06T01:50:17.682Z,9.129630
2023-07-06T01:55:18.061Z,9.043981
2023-07-06T02:00:17.505Z,9.217593
2023-07-06T02:05:17.552Z,9.516204
2023-07-06T02:10:17.343Z,9.592593
2023-07-06T02:15:17.459Z,9.738426
2023-07-06T02:20:17.452Z,9.476852
2023-07-06T02:25:17.277Z,9.326667
2023-07-06T02:30:17.421Z,9.340278
2023-07-06T02:35:17.231Z,9.761574
2023-07-06T02:40:17.315Z,9.587963
2023-07-06T02:45:17.676Z,9.502315
2023-07-06T02:50:17.173Z,9.467593
2023-07-06T02:55:17.336Z,9.425926
2023-07-06T03:00:17.395Z,9.574074
2023-07-06T03:05:17.398Z,9.437500
2023-07-06T03:10:17.998Z,9.530093
2023-07-06T03:15:17.807Z,9.543981
2023-07-06T03:20:17.656Z,9.550926
2023-07-06T03:25:17.352Z,9.560000
2023-07-06T03:30:17.361Z,9.611111
2023-07-06T03:35:17.559Z,10.113426
2023-07-06T03:40:17.197Z,10.206019
2023-07-06T03:45:17.284Z,9.990741
2023-07-06T03:50:17.326Z,9.900000
2023-07-06T03:55:17.204Z,9.837963
2023-07-06T04:00:17.596Z,9.697778
2023-07-06T04:05:17.305Z,10.131944
2023-07-06T04:10:17.651Z,10.280093
2023-07-06T04:15:17.335Z,10.162037
2023-07-06T04:20:17.363Z,10.395833
2023-07-06T04:25:17.561Z,10.729167
2023-07-06T04:30:17.812Z,11.131944
2023-07-06T04:35:17.422Z,11.465278
2023-07-06T04:40:17.490Z,11.895833
2023-07-06T04:45:17.256Z,12.421296
2023-07-06T04:50:17.292Z,12.791667
2023-07-06T04:55:17.611Z,13.197778
2023-07-06T05:00:17.359Z,13.520833
2023-07-06T05:05:17.441Z,13.773148
2023-07-06T05:10:17.578Z,13.960648
2023-07-06T05:15:17.316Z,14.314815
2023-07-06T05:20:17.413Z,14.662037
2023-07-06T05:25:17.300Z,15.178241
2023-07-06T05:30:20.015Z,15.379630
2023-07-06T05:35:17.517Z,15.638889
2023-07-06T05:40:17.238Z,15.557870
2023-07-06T05:45:17.457Z,15.682222
2023-07-06T05:50:17.163Z,16.037037
2023-07-06T05:55:17.233Z,16.268519
2023-07-06T06:00:17.282Z,16.629630
2023-07-06T06:05:17.287Z,16.895833
2023-07-06T06:10:17.511Z,17.289352
2023-07-06T06:15:17.144Z,17.541667
2023-07-06T06:20:17.544Z,17.865741
2023-07-06T06:25:17.328Z,17.937500
2023-07-06T06:30:17.545Z,18.074074
2023-07-06T06:35:17.538Z,18.280093
2023-07-06T06:40:17.339Z,18.541667
2023-07-06T06:45:17.370Z,18.724537
2023-07-06T06:50:17.459Z,18.881944
2023-07-06T06:55:17.689Z,19.159722
2023-07-06T07:00:17.380Z,19.129630
2023-07-06T07:05:17.658Z,19.159722
2023-07-06T07:10:17.304Z,19.293981
2023-07-06T07:15:18.128Z,19.391204
2023-07-06T07:20:17.184Z,19.446759
2023-07-06T07:25:17.397Z,19.537778
2023-07-06T07:30:17.423Z,19.655093
2023-07-06T07:35:17.077Z,19.608889
2023-07-06T07:40:17.614Z,19.527778
2023-07-06T07:45:17.432Z,19.566667
2023-07-06T07:50:17.073Z,19.995370
2023-07-06T07:55:18.104Z,20.097778
2023-07-06T08:00:17.259Z,20.023148
2023-07-06T08:05:17.294Z,19.946759
2023-07-06T08:10:17.197Z,20.120370
2023-07-06T08:15:17.205Z,20.358796
2023-07-06T08:20:55.317Z,20.584444
2023-07-06T08:21:37.899Z,20.584444
2023-07-06T08:25:17.316Z,20.645833
2023-07-06T08:30:17.305Z,20.946759
2023-07-06T08:35:17.371Z,20.601852
2023-07-06T08:40:17.152Z,20.759259
2023-07-06T08:45:17.273Z,20.807870
2023-07-06T08:50:17.207Z,21.537778
2023-07-06T08:55:17.232Z,21.678241
2023-07-06T09:00:17.290Z,21.349537
2023-07-06T09:05:17.330Z,21.310185
2023-07-06T09:10:24.839Z,21.384259
2023-07-06T09:15:17.447Z,21.638889
2023-07-06T09:20:17.422Z,22.222222
2023-07-06T09:25:17.090Z,22.381944
2023-07-06T09:30:17.566Z,22.303241
2023-07-06T09:35:17.637Z,21.800926
2023-07-06T09:40:17.843Z,21.273148
2023-07-06T09:45:17.875Z,21.865741
2023-07-06T09:50:17.399Z,22.196759
2023-07-06T09:55:17.194Z,22.043981
2023-07-06T10:00:17.205Z,22.353333
2023-07-06T10:05:17.333Z,22.160000
2023-07-06T10:10:17.378Z,22.562500
2023-07-06T10:15:17.557Z,22.412037
2023-07-06T10:20:17.329Z,22.013333
2023-07-06T10:25:17.047Z,22.365741
2023-07-06T10:30:17.332Z,22.479167
2023-07-06T10:35:17.022Z,21.871111
2023-07-06T10:40:17.216Z,21.541667
2023-07-06T10:45:17.321Z,21.803241
2023-07-06T10:50:17.140Z,22.817130
2023-07-06T10:55:17.600Z,22.960000
2023-07-06T11:00:17.683Z,23.090278
2023-07-06T11:05:17.676Z,21.895833
2023-07-06T11:10:17.154Z,21.252315
2023-07-06T11:15:17.461Z,21.326389
2023-07-06T11:20:17.182Z,22.479167
2023-07-06T11:25:17.215Z,23.141204
2023-07-06T11:30:17.233Z,23.634259
2023-07-06T11:35:17.163Z,23.548611
2023-07-06T11:40:17.172Z,23.752315
2023-07-06T11:45:17.888Z,22.965278
2023-07-06T11:50:17.164Z,22.685185
2023-07-06T11:55:17.219Z,23.530093
2023-07-06T12:00:17.272Z,23.349537
2023-07-06T12:05:17.470Z,23.150463
2023-07-06T12:10:17.251Z,23.292398
2023-07-06T12:15:17.542Z,23.516204
2023-07-06T12:20:17.311Z,24.393333
2023-07-06T12:25:17.224Z,24.640000
2023-07-06T12:30:17.786Z,23.819444
2023-07-06T12:35:17.076Z,22.532407
2023-07-06T12:40:17.191Z,22.988889
2023-07-06T12:45:17.398Z,23.460648
2023-07-06T12:50:17.121Z,23.418981
2023-07-06T12:55:17.733Z,23.937500
2023-07-06T13:00:17.147Z,23.995370
2023-07-06T13:05:17.275Z,24.104167
2023-07-06T13:10:17.300Z,23.546296
2023-07-06T13:15:17.116Z,22.791667
2023-07-06T13:20:17.145Z,23.440000
2023-07-06T13:25:17.135Z,24.118056
2023-07-06T13:30:17.148Z,24.375000
2023-07-06T13:35:18.297Z,24.513889
2023-07-06T13:40:17.109Z,24.071759
2023-07-06T13:45:17.691Z,23.356481
2023-07-06T13:50:17.199Z,22.932870
2023-07-06T13:55:17.078Z,22.682870
2023-07-06T14:00:17.978Z,23.377778
2023-07-06T14:05:17.120Z,23.777778
2023-07-06T14:10:17.079Z,23.821759
2023-07-06T14:15:17.248Z,24.023148
2023-07-06T14:20:17.280Z,23.157407
2023-07-06T14:25:17.759Z,23.706019
2023-07-06T14:30:17.134Z,24.101852
2023-07-06T14:35:17.700Z,24.379630
2023-07-06T14:40:17.090Z,24.395833
2023-07-06T14:45:17.191Z,24.259259
2023-07-06T14:50:17.107Z,24.027778
2023-07-06T14:55:17.055Z,23.321759
2023-07-06T15:00:17.174Z,23.553241
2023-07-06T15:05:17.505Z,24.270833
2023-07-06T15:10:17.056Z,24.131111
2023-07-06T15:15:17.206Z,24.071759
2023-07-06T15:20:17.320Z,24.282407
2023-07-06T15:25:17.172Z,24.233333
2023-07-06T15:30:17.583Z,24.377315
2023-07-06T15:35:17.308Z,23.895833
2023-07-06T15:40:17.147Z,23.807870
2023-07-06T15:45:17.426Z,23.750000
2023-07-06T15:50:16.964Z,24.067130
2023-07-06T15:55:17.278Z,23.969907
2023-07-06T16:00:17.102Z,23.291667
2023-07-06T16:05:17.065Z,23.251111
2023-07-06T16:10:17.217Z,22.506944
2023-07-06T16:15:17.285Z,22.217593
2023-07-06T16:20:18.692Z,23.002315
2023-07-06T16:25:17.014Z,23.645833
2023-07-06T16:30:17.071Z,23.486111
2023-07-06T16:35:17.141Z,23.282407
2023-07-06T16:40:17.749Z,23.395833
2023-07-06T16:45:17.053Z,23.701389
2023-07-06T16:50:17.103Z,23.689815
2023-07-06T16:55:17.037Z,23.782407
2023-07-06T17:00:17.128Z,23.763889
2023-07-06T17:05:17.616Z,23.692130
2023-07-06T17:10:17.005Z,23.444444
2023-07-06T17:15:19.677Z,23.226852
2023-07-06T17:20:17.179Z,23.331019
2023-07-06T17:25:17.282Z,22.946759
2023-07-06T17:30:17.220Z,22.976852
2023-07-06T17:35:17.161Z,22.888889
2023-07-06T17:40:17.254Z,22.631944
2023-07-06T17:45:17.058Z,22.671296
2023-07-06T17:50:17.371Z,22.768519
2023-07-06T17:55:17.610Z,22.439815
2023-07-06T18:00:17.247Z,21.636574
2023-07-06T18:05:17.364Z,20.935185
2023-07-06T18:10:17.023Z,20.428241
2023-07-06T18:15:17.161Z,20.333333
2023-07-06T18:20:17.022Z,20.270833
2023-07-06T18:25:17.430Z,19.863426
2023-07-06T18:30:17.621Z,19.391204
2023-07-06T18:35:17.068Z,18.805556
2023-07-06T18:40:16.986Z,18.358796
2023-07-06T18:45:22.803Z,18.175556
2023-07-06T18:50:17.359Z,17.701389
2023-07-06T18:55:17.140Z,17.354167
2023-07-06T19:00:17.059Z,16.967593
2023-07-06T19:05:17.061Z,16.641204
2023-07-06T19:10:17.300Z,16.245370
2023-07-06T19:15:17.144Z,15.958333
2023-07-06T19:20:17.033Z,15.692130
2023-07-06T19:25:17.704Z,15.511574
2023-07-06T19:30:17.715Z,14.634259
2023-07-06T19:35:17.100Z,14.143519
2023-07-06T19:40:16.892Z,13.904444
2023-07-06T19:45:17.068Z,13.680556
2023-07-06T19:50:17.190Z,13.555556
2023-07-06T19:55:17.118Z,13.231481
2023-07-06T20:00:17.137Z,13.203704
2023-07-06T20:05:17.044Z,13.270833
2023-07-06T20:10:16.986Z,13.192130
2023-07-06T20:15:17.049Z,13.196759
2023-07-06T20:20:17.047Z,13.009259
2023-07-06T20:25:17.030Z,12.701389
2023-07-06T20:30:17.051Z,12.625000
2023-07-06T20:35:17.007Z,12.407407
2023-07-06T20:40:17.048Z,12.078704
2023-07-06T20:45:17.213Z,11.793981
2023-07-06T20:50:17.022Z,11.726852
2023-07-06T20:55:16.988Z,11.939815
2023-07-06T21:00:17.264Z,11.564815
2023-07-06T21:05:17.457Z,11.405093
2023-07-06T21:10:16.955Z,11.379630
2023-07-06T21:15:17.316Z,11.534722
2023-07-06T21:20:17.488Z,11.268519
2023-07-06T21:25:17.092Z,11.236111
2023-07-06T21:30:16.978Z,11.196759
2023-07-06T21:35:17.154Z,11.087963
2023-07-06T21:40:17.071Z,10.685185
2023-07-06T21:45:16.921Z,10.719907
2023-07-06T21:50:17.413Z,10.905093
2023-07-06T21:55:17.077Z,10.810185
2023-07-06T22:00:17.796Z,10.588889
2023-07-06T22:05:17.919Z,10.481481
2023-07-06T22:10:17.045Z,10.518519
2023-07-06T22:15:29.524Z,10.571759
2023-07-06T22:20:16.981Z,10.522222
2023-07-06T22:25:16.938Z,10.226852
2023-07-06T22:30:17.197Z,10.097222
2023-07-06T22:35:16.921Z,9.888889
2023-07-06T22:40:17.201Z,9.835648
2023-07-06T22:45:17.080Z,9.759259
2023-07-06T22:50:17.026Z,9.805556
2023-07-06T22:55:16.990Z,10.351852
2023-07-06T23:00:17.215Z,10.189815
2023-07-06T23:05:16.892Z,9.717593
2023-07-06T23:10:16.901Z,9.583333
2023-07-06T23:15:17.010Z,9.407407
2023-07-06T23:20:16.986Z,9.648148
2023-07-06T23:25:16.874Z,9.993056
2023-07-06T23:30:16.882Z,9.546296
2023-07-06T23:35:17.016Z,9.803241
2023-07-06T23:40:16.953Z,9.462963
2023-07-06T23:45:17.216Z,9.703704
2023-07-06T23:50:16.916Z,9.481481
2023-07-06T23:55:17.029Z,9.025463
